Time;durP1;ratioP1;P1;durP2;ratioP2;P2;SDS_P1;SDS_P2;PMS_P1;PMS_P2;Temp;Humidity;BMP_temperature;BMP_pressure;BME280_temperature;BME280_humidity;BME280_pressure;Samples;Min_cycle;Max_cycle;Signal;HPM_P1;HPM_P2
2022/02/05 00:02:16;;;;;;;0.00;0.00;;;;;;;3.09;61.42;99219.22;6150341;23;20017;-77
2022/02/05 00:04:46;;;;;;;0.00;0.00;;;;;;;3.08;61.72;99214.16;6124432;23;20009;-78
2022/02/05 00:07:12;;;;;;;0.00;0.00;;;;;;;3.03;61.82;99212.97;6125224;23;20062;-78
2022/02/05 00:15:34;;;;;;;0.00;0.00;;;;;;;3.01;61.65;99214.22;6149819;23;20005;-77
2022/02/05 00:42:26;;;;;;;0.00;0.00;;;;;;;2.73;62.35;99212.91;6150210;23;20033;-77
2022/02/05 00:44:51;;;;;;;0.00;0.00;;;;;;;2.66;62.23;99206.91;6123742;23;20485;-79
2022/02/05 00:47:17;;;;;;;0.10;0.10;;;;;;;2.64;62.42;99199.22;6123349;23;20009;-79
2022/02/05 00:49:44;;;;;;;0.00;0.00;;;;;;;2.60;62.68;99203.31;6122500;23;20006;-79
2022/02/05 00:52:13;;;;;;;0.00;0.00;;;;;;;2.53;63.15;99199.94;6122924;23;20002;-79
2022/02/05 00:54:41;;;;;;;;;;;;;;;2.52;63.08;99206.25;6123006;23;20085;-80
2022/02/05 00:57:20;;;;;;;0.00;0.00;;;;;;;2.44;63.11;99202.06;6122897;23;19987;-79
2022/02/05 00:59:45;;;;;;;0.00;0.00;;;;;;;2.42;63.49;99206.75;6122779;23;20094;-80
2022/02/05 01:02:11;;;;;;;0.00;0.00;;;;;;;2.35;63.39;99203.38;6122896;23;20006;-79
2022/02/05 01:04:36;;;;;;;0.00;0.00;;;;;;;2.33;63.65;99202.75;6148621;23;20025;-80
2022/02/05 01:07:02;;;;;;;0.00;0.00;;;;;;;2.28;63.58;99203.41;6149403;23;20058;-79
2022/02/05 01:09:27;;;;;;;0.00;0.00;;;;;;;2.28;63.38;99213.97;6124019;23;20063;-78
2022/02/05 01:11:55;;;;;;;0.00;0.00;;;;;;;2.24;63.83;99202.25;6150308;23;20006;-79
2022/02/05 01:14:26;;;;;;;0.00;0.00;;;;;;;2.22;63.84;99206.91;6124475;23;20096;-79
2022/02/05 01:17:03;;;;;;;0.00;0.00;;;;;;;2.21;63.76;99208.75;6124250;23;20005;-79
2022/02/05 01:22:30;;;;;;;0.00;0.00;;;;;;;2.19;63.72;99207.38;6150495;23;20016;-80
2022/02/05 01:24:57;;;;;;;0.00;0.00;;;;;;;2.16;63.32;99208.63;6127088;23;20398;-80
2022/02/05 01:32:43;;;;;;;0.00;0.00;;;;;;;2.08;63.67;99201.75;6149668;23;20142;-79
2022/02/05 01:50:05;;;;;;;0.00;0.00;;;;;;;2.03;63.15;99184.97;6151061;22;20409;-79
2022/02/05 01:52:07;;;;;;;0.00;0.00;;;;;;;2.02;63.46;99184.16;6134863;23;20469;-79
2022/02/05 01:55:04;;;;;;;0.00;0.00;;;;;;;2.03;63.51;99177.88;6124658;23;20084;-79
2022/02/05 02:11:34;;;;;;;0.00;0.00;;;;;;;2.05;63.71;99182.91;6151969;23;20090;-79
2022/02/05 02:14:23;;;;;;;0.00;0.00;;;;;;;2.00;63.54;99172.22;6124832;23;20044;-77
2022/02/05 02:20:50;;;;;;;0.00;0.00;;;;;;;1.88;63.88;99183.47;6152382;23;20033;-82
2022/02/05 02:33:59;;;;;;;0.00;0.00;;;;;;;1.54;64.58;99174.22;6185502;23;20064;-81
2022/02/05 02:36:48;;;;;;;0.00;0.00;;;;;;;1.48;64.73;99175.84;6174872;23;20540;-79
2022/02/05 02:39:19;;;;;;;0.00;0.00;;;;;;;1.47;64.76;99182.16;6181408;23;20001;-77
2022/02/05 02:41:49;;;;;;;0.00;0.00;;;;;;;1.45;64.75;99181.53;6126366;23;20002;-75
2022/02/05 02:44:15;;;;;;;0.00;0.00;;;;;;;1.35;65.54;99182.00;6088208;23;20057;-78
2022/02/05 02:46:41;;;;;;;0.10;0.10;;;;;;;1.31;65.54;99182.63;6063938;23;20015;-78
2022/02/05 02:49:09;;;;;;;0.00;0.00;;;;;;;1.27;65.75;99182.28;6113147;23;20059;-77
2022/02/05 02:57:20;;;;;;;0.00;0.00;;;;;;;1.23;65.71;99187.16;6150775;23;20021;-79
2022/02/05 02:59:56;;;;;;;0.00;0.00;;;;;;;1.24;65.50;99180.06;6148759;23;20218;-79
2022/02/05 03:02:24;;;;;;;0.00;0.00;;;;;;;1.23;65.58;99186.34;6148895;23;20012;-79
2022/02/05 03:05:08;;;;;;;0.00;0.00;;;;;;;1.22;65.60;99171.53;6149081;23;20436;-82
2022/02/05 03:07:33;;;;;;;0.00;0.00;;;;;;;1.19;65.78;99167.50;6156033;23;20097;-79
2022/02/05 03:09:59;;;;;;;0.00;0.00;;;;;;;1.17;65.72;99172.16;6148251;23;20548;-79
2022/02/05 03:12:24;;;;;;;0.00;0.00;;;;;;;1.14;65.75;99169.97;6150447;23;20002;-79
2022/02/05 03:14:51;;;;;;;0.00;0.00;;;;;;;1.12;65.58;99164.09;6148637;23;19997;-80
2022/02/05 03:17:25;;;;;;;0.00;0.00;;;;;;;1.11;65.83;99165.13;6149539;23;20070;-81
2022/02/05 03:20:24;;;;;;;0.57;0.57;;;;;;;1.10;65.63;99168.78;6159192;23;20017;-83
2022/02/05 03:27:06;;;;;;;0.00;0.00;;;;;;;1.05;65.59;99169.41;6148537;22;20386;-80
2022/02/05 03:29:56;;;;;;;0.00;0.00;;;;;;;1.01;66.18;99170.03;6124294;23;20055;-81
2022/02/05 03:32:45;;;;;;;0.00;0.00;;;;;;;0.98;66.36;99173.91;6132299;22;20067;-83
2022/02/05 03:35:18;;;;;;;0.00;0.00;;;;;;;0.97;66.42;99174.13;6168209;23;20076;-81
2022/02/05 03:37:48;;;;;;;0.00;0.00;;;;;;;0.92;66.22;99167.63;6126820;22;20078;-81
2022/02/05 03:40:13;;;;;;;0.00;0.00;;;;;;;0.89;66.24;99169.88;6124750;22;19998;-78
2022/02/05 03:42:39;;;;;;;0.00;0.00;;;;;;;0.82;66.61;99159.41;6123931;23;20071;-79
2022/02/05 03:45:05;;;;;;;0.00;0.00;;;;;;;0.79;66.60;99168.53;6124960;23;20009;-78
2022/02/05 03:47:33;;;;;;;0.20;0.20;;;;;;;0.82;66.73;99174.38;6150291;23;20010;-79
2022/02/05 03:50:04;;;;;;;0.00;0.00;;;;;;;0.78;66.67;99169.53;6123919;23;20071;-79
2022/02/05 03:52:30;;;;;;;0.00;0.00;;;;;;;0.75;66.71;99177.03;6124164;23;20080;-79
2022/02/05 03:54:55;;;;;;;0.00;0.00;;;;;;;0.73;66.86;99166.72;6123838;23;20043;-78
2022/02/05 03:57:26;;;;;;;0.00;0.00;;;;;;;0.70;66.96;99167.13;6123623;23;20071;-80
2022/02/05 03:59:52;;;;;;;0.00;0.00;;;;;;;0.69;66.71;99164.72;6123014;23;20006;-78
2022/02/05 04:02:17;;;;;;;0.00;0.00;;;;;;;0.64;66.87;99162.69;6123921;23;20064;-79
2022/02/05 04:04:43;;;;;;;0.00;0.00;;;;;;;0.62;66.77;99160.28;6123863;23;20005;-80
2022/02/05 04:07:08;;;;;;;0.10;0.10;;;;;;;0.61;66.72;99166.56;6124512;23;20080;-79
2022/02/05 04:09:41;;;;;;;0.00;0.00;;;;;;;0.56;66.15;99162.91;6123733;23;20001;-79
2022/02/05 04:17:59;;;;;;;0.00;0.00;;;;;;;0.36;66.63;99161.16;6152803;23;20016;-82
2022/02/05 04:21:11;;;;;;;0.20;0.20;;;;;;;0.29;66.86;99168.25;6124159;23;20020;-81
2022/02/05 04:23:51;;;;;;;0.00;0.00;;;;;;;0.22;66.83;99170.06;6138380;23;20002;-82
2022/02/05 04:26:18;;;;;;;0.00;0.00;;;;;;;0.20;66.81;99169.50;6122779;23;20012;-75
2022/02/05 04:28:44;;;;;;;0.00;0.00;;;;;;;0.14;66.85;99174.53;6148309;23;20004;-77
2022/02/05 04:31:17;;;;;;;0.00;0.00;;;;;;;0.08;67.06;99169.31;6123000;23;20037;-80
2022/02/05 04:33:43;;;;;;;0.00;0.00;;;;;;;0.07;66.97;99163.22;6122458;23;20005;-79
2022/02/05 04:36:10;;;;;;;0.00;0.00;;;;;;;0.05;66.97;99173.16;6123040;23;20439;-80
2022/02/05 04:38:37;;;;;;;0.00;0.00;;;;;;;0.05;66.81;99180.22;6148249;23;20002;-80
2022/02/05 05:20:07;;;;;;;0.00;0.00;;;;;;;-0.04;67.49;99196.22;6150066;23;20005;-77
2022/02/05 05:22:32;;;;;;;0.55;0.55;;;;;;;-0.06;67.53;99192.97;6124307;23;20016;-79
2022/02/05 05:25:00;;;;;;;0.00;0.00;;;;;;;-0.05;67.38;99197.22;6123733;23;20446;-80
2022/02/05 05:27:26;;;;;;;0.00;0.00;;;;;;;-0.03;67.26;99204.91;6124119;23;20018;-80
2022/02/05 05:29:52;;;;;;;0.00;0.00;;;;;;;-0.03;67.44;99204.91;6123529;23;20088;-80
2022/02/05 05:32:17;;;;;;;0.28;0.28;;;;;;;-0.03;67.06;99197.81;6123786;23;20029;-80
2022/02/05 05:34:43;;;;;;;0.00;0.00;;;;;;;0.02;67.14;99199.03;6123848;23;20066;-79
2022/02/05 05:37:08;;;;;;;0.00;0.00;;;;;;;0.05;67.10;99203.88;6123681;23;20010;-79
2022/02/05 05:39:35;;;;;;;0.00;0.00;;;;;;;0.09;67.24;99205.91;6124369;23;20032;-78
2022/02/05 05:42:00;;;;;;;0.00;0.00;;;;;;;0.15;67.16;99202.47;6124430;23;20041;-78
2022/02/05 05:44:58;;;;;;;0.00;0.00;;;;;;;0.21;67.50;99200.03;6124706;23;20028;-79
2022/02/05 05:47:19;;;;;;;0.15;0.15;;;;;;;0.27;67.51;99218.44;6149571;23;20014;-80
2022/02/05 05:52:31;;;;;;;0.00;0.00;;;;;;;0.43;66.97;99222.47;6074957;23;20502;-79
2022/02/05 05:54:57;;;;;;;0.00;0.00;;;;;;;0.47;66.84;99218.41;6124188;23;20005;-80
2022/02/05 05:57:23;;;;;;;0.00;0.00;;;;;;;0.56;67.17;99220.81;6123898;23;20001;-79
2022/02/05 05:59:49;;;;;;;0.00;0.00;;;;;;;0.62;66.24;99222.63;6122618;23;20013;-77
2022/02/05 06:02:14;;;;;;;0.00;0.00;;;;;;;0.69;65.82;99223.41;6123496;23;20013;-80
2022/02/05 06:04:40;;;;;;;0.20;0.20;;;;;;;0.74;65.68;99225.44;6123482;23;20006;-78
2022/02/05 06:07:07;;;;;;;0.00;0.00;;;;;;;0.82;65.48;99229.66;6123789;23;20017;-79
2022/02/05 06:09:35;;;;;;;0.00;0.00;;;;;;;0.92;65.08;99235.31;6123440;23;20041;-77
2022/02/05 06:12:01;;;;;;;0.00;0.00;;;;;;;1.01;65.08;99226.16;6148364;23;20464;-77
2022/02/05 06:14:28;;;;;;;1.45;1.20;;;;;;;1.13;65.09;99225.50;6148661;23;20005;-78
2022/02/05 06:17:01;;;;;;;0.00;0.00;;;;;;;1.24;64.83;99225.63;6148222;23;20001;-78
2022/02/05 06:19:27;;;;;;;1.67;1.55;;;;;;;1.32;64.36;99214.06;6123213;23;20005;-77
2022/02/05 06:21:52;;;;;;;0.00;0.00;;;;;;;1.46;64.40;99219.25;6147981;23;20316;-77
2022/02/05 06:24:17;;;;;;;0.00;0.00;;;;;;;1.56;64.14;99225.69;6123055;23;20078;-80
2022/02/05 06:26:43;;;;;;;0.00;0.00;;;;;;;1.67;63.72;99221.56;6123013;23;20409;-79
2022/02/05 06:29:09;;;;;;;0.00;0.00;;;;;;;1.80;64.00;99223.28;6149910;23;20013;-79
2022/02/05 06:31:34;;;;;;;0.00;0.00;;;;;;;1.91;64.07;99224.44;6122140;23;20453;-78
2022/02/05 06:34:06;;;;;;;0.10;0.10;;;;;;;2.06;63.42;99226.75;6147949;23;20009;-79
2022/02/05 06:36:31;;;;;;;0.15;0.15;;;;;;;2.17;62.48;99222.59;6122981;23;20001;-78
2022/02/05 06:39:20;;;;;;;0.00;0.00;;;;;;;2.31;61.93;99236.50;6123369;23;20004;-80
2022/02/05 06:41:47;;;;;;;0.13;0.13;;;;;;;2.45;61.76;99240.63;6128328;23;20006;-79
2022/02/05 06:44:16;;;;;;;0.00;0.00;;;;;;;2.56;61.01;99234.63;6123531;23;20009;-81
2022/02/05 06:46:42;;;;;;;;;;;;;;;2.71;61.09;99233.44;6123308;23;20454;-78
2022/02/05 06:49:07;;;;;;;0.08;0.08;;;;;;;2.84;60.72;99235.94;6123765;23;19911;-78
2022/02/05 06:51:33;;;;;;;0.00;0.00;;;;;;;2.95;60.67;99233.59;6124137;23;20002;-77
2022/02/05 06:53:59;;;;;;;0.00;0.00;;;;;;;3.03;60.60;99234.13;6123620;23;20059;-78
2022/02/05 06:56:25;;;;;;;0.00;0.00;;;;;;;3.17;60.50;99239.25;6150178;23;20006;-78
2022/02/05 06:58:50;;;;;;;0.00;0.00;;;;;;;3.30;59.83;99246.22;6149360;23;20008;-80
2022/02/05 07:01:16;;;;;;;0.00;0.00;;;;;;;3.41;59.60;99248.09;6124049;23;20511;-80
2022/02/05 07:03:41;;;;;;;0.63;0.63;;;;;;;3.49;59.41;99247.78;6123680;23;20408;-79
2022/02/05 07:06:07;;;;;;;0.00;0.00;;;;;;;3.57;59.02;99246.66;6123747;22;20516;-79
2022/02/05 07:08:33;;;;;;;0.00;0.00;;;;;;;3.60;58.78;99240.94;6124002;23;20037;-80
2022/02/05 07:10:59;;;;;;;0.57;0.57;;;;;;;3.66;58.75;99226.78;6122449;23;20331;-77
2022/02/05 07:16:20;;;;;;;1.30;1.10;;;;;;;3.78;58.59;99232.09;6210662;22;20036;-80
2022/02/05 07:21:43;;;;;;;0.20;0.20;;;;;;;3.99;57.91;99227.31;6161678;23;20024;-81
2022/02/05 07:24:22;;;;;;;0.00;0.00;;;;;;;4.11;57.18;99219.38;6123462;23;20084;-81
2022/02/05 07:29:31;;;;;;;0.00;0.00;;;;;;;4.27;55.97;99221.38;6149433;23;20016;-81
2022/02/05 07:31:58;;;;;;;0.00;0.00;;;;;;;4.37;55.83;99218.16;6122527;23;20355;-81
2022/02/05 07:34:35;;;;;;;0.00;0.00;;;;;;;4.48;55.97;99219.19;6124943;23;20446;-79
2022/02/05 07:37:05;;;;;;;3.10;1.55;;;;;;;4.58;55.57;99218.59;6124535;23;20005;-81
2022/02/05 07:39:48;;;;;;;1.60;0.85;;;;;;;4.71;54.99;99222.81;6150087;23;20022;-79
2022/02/05 07:42:15;;;;;;;0.00;0.00;;;;;;;4.84;54.69;99214.63;6124945;23;20006;-78
2022/02/05 07:44:40;;;;;;;0.00;0.00;;;;;;;4.96;54.52;99206.66;6125067;23;20008;-81
2022/02/05 07:47:07;;;;;;;0.00;0.00;;;;;;;5.04;53.77;99201.00;6123199;23;19998;-79
2022/02/05 07:49:39;;;;;;;0.28;0.28;;;;;;;5.16;53.81;99206.22;6123090;23;20001;-76
2022/02/05 07:52:05;;;;;;;0.00;0.00;;;;;;;5.27;53.15;99207.22;6122323;23;20350;-78
2022/02/05 07:54:30;;;;;;;0.00;0.00;;;;;;;5.28;53.16;99207.03;6122864;23;20063;-79
2022/02/05 07:56:56;;;;;;;0.05;0.05;;;;;;;5.40;53.10;99208.81;6149214;23;20389;-78
2022/02/05 07:59:21;;;;;;;0.08;0.08;;;;;;;5.49;52.71;99196.75;6123153;23;20009;-78
2022/02/05 08:01:47;;;;;;;0.00;0.00;;;;;;;5.45;52.03;99201.72;6151331;23;20009;-79
2022/02/05 08:04:13;;;;;;;0.00;0.00;;;;;;;5.47;51.63;99209.47;6125849;23;20347;-78
2022/02/05 08:06:39;;;;;;;0.50;0.50;;;;;;;5.55;52.14;99211.72;6123200;23;20009;-78
2022/02/05 08:09:18;;;;;;;0.05;0.05;;;;;;;5.60;51.99;99203.88;6123186;23;20403;-80
2022/02/05 08:11:50;;;;;;;0.00;0.00;;;;;;;5.65;51.57;99194.38;6101524;23;20223;-79
2022/02/05 08:14:16;;;;;;;0.10;0.10;;;;;;;5.73;51.78;99199.28;6124753;23;20005;-80
2022/02/05 08:19:08;;;;;;;0.00;0.00;;;;;;;5.84;52.68;99194.97;6149782;23;20005;-79
2022/02/05 08:21:34;;;;;;;0.10;0.10;;;;;;;5.91;53.30;99187.66;6147812;23;20029;-78
2022/02/05 08:23:59;;;;;;;0.20;0.20;;;;;;;5.96;53.43;99185.06;6148238;23;20354;-78
2022/02/05 08:26:28;;;;;;;0.00;0.00;;;;;;;5.97;53.00;99191.16;6147188;23;20009;-77
2022/02/05 08:28:55;;;;;;;0.35;0.35;;;;;;;6.01;53.36;99195.78;6148724;23;20016;-77
2022/02/05 08:31:21;;;;;;;0.20;0.20;;;;;;;6.05;54.21;99193.44;6149313;23;20384;-77
2022/02/05 08:33:47;;;;;;;0.30;0.30;;;;;;;6.10;54.59;99196.19;6148743;23;20044;-78
2022/02/05 08:36:13;;;;;;;0.00;0.00;;;;;;;6.12;55.57;99190.66;6147757;23;20005;-78
2022/02/05 08:38:43;;;;;;;0.43;0.43;;;;;;;6.06;55.59;99187.91;6108804;22;20225;-82
2022/02/05 08:41:12;;;;;;;0.10;0.10;;;;;;;5.97;55.44;99183.19;6157779;22;20026;-79
2022/02/05 08:43:46;;;;;;;;;;;;;;;6.06;55.85;99197.72;6162842;23;20065;-83
2022/02/05 08:46:13;;;;;;;0.40;0.30;;;;;;;6.16;55.33;99191.75;6165637;23;19909;-82
2022/02/05 08:48:43;;;;;;;0.50;0.50;;;;;;;6.24;54.89;99197.47;6138438;23;20029;-82
2022/02/05 08:51:41;;;;;;;1.48;1.38;;;;;;;6.31;54.32;99191.16;6156102;23;19997;-81
2022/02/05 08:54:09;;;;;;;0.20;0.20;;;;;;;6.46;54.10;99188.72;6154621;23;20061;-83
2022/02/05 08:56:35;;;;;;;0.35;0.35;;;;;;;6.51;52.90;99195.97;6148719;23;20235;-80
2022/02/05 08:59:01;;;;;;;0.30;0.30;;;;;;;6.57;52.13;99193.13;6148297;23;20088;-78
2022/02/05 09:01:31;;;;;;;0.22;0.22;;;;;;;6.67;51.86;99187.13;6148443;23;20001;-79
2022/02/05 09:06:29;;;;;;;;;;;;;;;6.82;51.24;99199.03;6149891;23;20005;-81
2022/02/05 09:09:08;;;;;;;4.07;0.68;;;;;;;6.85;50.86;99193.22;6148167;23;20034;-79
2022/02/05 09:14:17;;;;;;;0.00;0.00;;;;;;;6.91;51.01;99199.38;6149903;23;20009;-81
2022/02/05 09:16:44;;;;;;;0.47;0.47;;;;;;;6.99;50.74;99201.63;6147674;23;20001;-80
2022/02/05 09:19:15;;;;;;;0.00;0.00;;;;;;;7.00;51.25;99198.69;6154631;23;19981;-82
2022/02/05 09:22:30;;;;;;;0.45;0.45;;;;;;;7.07;50.61;99195.03;6160706;23;19985;-82
2022/02/05 09:25:41;;;;;;;0.68;0.68;;;;;;;7.17;49.48;99198.63;6160443;23;20033;-82
2022/02/05 09:31:27;;;;;;;0.00;0.00;;;;;;;7.40;48.41;99193.25;6215907;22;20014;-82
2022/02/05 09:33:52;;;;;;;2.72;0.80;;;;;;;7.49;49.37;99189.09;6303589;22;20015;-77
2022/02/05 09:36:17;;;;;;;0.00;0.00;;;;;;;7.57;48.68;99186.00;6306001;22;19995;-79
2022/02/05 09:38:43;;;;;;;0.10;0.10;;;;;;;7.64;48.19;99185.78;6278950;22;20011;-76
2022/02/05 09:41:08;;;;;;;0.28;0.28;;;;;;;7.68;47.96;99170.91;6305986;22;20081;-77
2022/02/05 09:43:34;;;;;;;0.00;0.00;;;;;;;7.79;48.30;99171.81;6305880;22;19999;-77
2022/02/05 09:45:59;;;;;;;0.00;0.00;;;;;;;7.81;49.70;99175.81;6306017;22;20007;-77
2022/02/05 09:48:28;;;;;;;0.20;0.20;;;;;;;7.80;50.47;99168.06;6306266;22;20010;-78
2022/02/05 09:50:54;;;;;;;;;;;;;;;7.80;50.37;99170.72;6306501;22;20558;-77
2022/02/05 09:53:21;;;;;;;1.27;1.20;;;;;;;7.77;49.22;99177.38;6306303;22;19907;-76
2022/02/05 09:55:49;;;;;;;0.00;0.00;;;;;;;7.79;49.99;99169.94;6305882;22;20014;-80
2022/02/05 09:58:16;;;;;;;0.57;0.57;;;;;;;7.80;50.09;99168.88;6278500;22;20003;-77
2022/02/05 10:01:12;;;;;;;0.43;0.43;;;;;;;7.77;49.53;99157.94;6305958;22;20069;-77
2022/02/05 10:03:39;;;;;;;0.50;0.50;;;;;;;7.78;49.10;99154.22;6306394;22;20003;-78
2022/02/05 10:06:08;;;;;;;0.15;0.15;;;;;;;7.84;49.17;99156.66;6305694;22;19999;-77
2022/02/05 10:08:39;;;;;;;0.08;0.08;;;;;;;7.86;49.62;99153.75;6305941;22;20061;-78
2022/02/05 10:11:07;;;;;;;0.30;0.30;;;;;;;7.90;49.12;99148.69;6279595;22;20007;-80
2022/02/05 10:13:33;;;;;;;0.68;0.68;;;;;;;7.93;48.85;99148.19;6278930;22;19999;-77
2022/02/05 10:15:59;;;;;;;0.40;0.40;;;;;;;8.00;48.64;99152.25;6305055;22;20450;-77
2022/02/05 10:18:27;;;;;;;1.45;1.25;;;;;;;8.05;48.86;99140.03;6306006;22;19999;-77
2022/02/05 10:20:56;;;;;;;0.10;0.10;;;;;;;8.18;48.19;99147.56;6305826;22;20007;-78
2022/02/05 10:23:21;;;;;;;0.45;0.45;;;;;;;8.26;46.95;99148.94;6279019;22;20347;-77
2022/02/05 10:25:53;;;;;;;0.00;0.00;;;;;;;8.36;46.78;99148.19;6306426;22;20006;-79
2022/02/05 10:28:18;;;;;;;1.02;1.02;;;;;;;8.42;46.68;99147.16;6306349;22;20007;-77
2022/02/05 10:30:51;;;;;;;0.30;0.30;;;;;;;8.51;46.11;99142.16;6306055;22;20007;-77
2022/02/05 10:33:24;;;;;;;0.70;0.70;;;;;;;8.57;45.89;99133.94;6305897;22;20003;-77
2022/02/05 10:43:56;;;;;;;0.00;0.00;;;;;;;8.85;45.57;99125.75;6305189;22;20065;-77
2022/02/05 10:46:32;;;;;;;0.10;0.10;;;;;;;8.96;45.01;99122.06;6305301;22;20432;-78
2022/02/05 10:48:58;;;;;;;0.00;0.00;;;;;;;8.99;45.31;99113.53;6304856;22;20003;-78
2022/02/05 10:51:45;;;;;;;0.00;0.00;;;;;;;9.03;44.88;99105.81;6278379;22;20333;-78
2022/02/05 10:54:24;;;;;;;0.00;0.00;;;;;;;9.05;44.98;99103.69;6305602;22;19999;-77
2022/02/05 10:57:08;;;;;;;0.00;0.00;;;;;;;9.14;45.14;99104.75;6305814;22;20003;-77
2022/02/05 11:05:37;;;;;;;0.00;0.00;;;;;;;9.33;45.63;99091.69;6305396;22;20060;-78
2022/02/05 11:08:02;;;;;;;0.10;0.10;;;;;;;9.41;45.55;99087.69;6305344;22;20086;-77
2022/02/05 11:21:13;;;;;;;0.65;0.65;;;;;;;9.75;45.70;99071.94;6304942;22;20003;-77
2022/02/05 11:23:38;;;;;;;1.55;1.45;;;;;;;9.80;46.23;99070.31;6277739;22;20030;-77
2022/02/05 11:26:06;;;;;;;0.00;0.00;;;;;;;9.87;46.43;99071.63;6304650;22;20428;-77
2022/02/05 11:28:41;;;;;;;0.00;0.00;;;;;;;9.89;46.18;99071.38;6305149;22;20003;-78
2022/02/05 11:31:16;;;;;;;0.00;0.00;;;;;;;9.96;46.60;99065.72;6276923;22;20086;-78
2022/02/05 11:33:42;;;;;;;0.00;0.00;;;;;;;10.00;46.97;99064.94;6305126;22;20003;-79
2022/02/05 11:38:57;;;;;;;0.10;0.10;;;;;;;10.15;46.57;99064.06;6304855;22;20007;-78
2022/02/05 11:41:26;;;;;;;0.00;0.00;;;;;;;10.19;46.90;99056.31;6305125;22;19999;-76
2022/02/05 11:44:39;;;;;;;0.00;0.00;;;;;;;10.29;47.03;99058.16;6305072;22;20098;-78
2022/02/05 11:47:07;;;;;;;0.00;0.00;;;;;;;10.34;46.56;99063.47;6180919;23;20012;-76
2022/02/05 11:49:50;;;;;;;0.00;0.00;;;;;;;10.44;46.90;99054.66;6209707;23;20066;-77
2022/02/05 11:52:39;;;;;;;0.00;0.00;;;;;;;10.49;46.32;99051.97;6268710;22;20116;-76
2022/02/05 11:55:27;;;;;;;0.00;0.00;;;;;;;10.56;46.80;99049.78;6277051;22;19999;-78
2022/02/05 11:58:01;;;;;;;0.00;0.00;;;;;;;10.62;46.17;99048.69;6304716;22;20010;-78
2022/02/05 12:00:36;;;;;;;0.00;0.00;;;;;;;10.65;45.90;99040.09;6304950;22;20505;-78
2022/02/05 12:03:17;;;;;;;0.00;0.00;;;;;;;10.73;45.50;99047.53;6276744;22;20007;-77
2022/02/05 12:05:51;;;;;;;0.00;0.00;;;;;;;10.72;45.72;99032.56;6304384;22;20085;-78
2022/02/05 12:08:21;;;;;;;0.20;0.20;;;;;;;10.78;45.61;99036.00;6276050;22;20137;-78
2022/02/05 12:10:51;;;;;;;0.00;0.00;;;;;;;10.83;45.81;99030.63;6304098;22;20004;-78
2022/02/05 12:13:40;;;;;;;0.00;0.00;;;;;;;10.89;45.40;99029.50;6276496;22;20014;-78
2022/02/05 12:16:06;;;;;;;0.00;0.00;;;;;;;10.95;45.72;99024.94;6303621;22;20030;-76
2022/02/05 12:18:57;;;;;;;0.00;0.00;;;;;;;11.04;45.51;99012.53;6303770;22;20049;-76
2022/02/05 12:21:29;;;;;;;0.10;0.10;;;;;;;11.08;44.24;99017.34;6303852;22;20033;-77
2022/02/05 12:26:30;;;;;;;0.00;0.00;;;;;;;11.26;44.17;99021.22;6303460;22;20007;-76
2022/02/05 12:29:00;;;;;;;0.00;0.00;;;;;;;11.29;44.17;99016.09;6303408;22;20007;-76
2022/02/05 12:31:25;;;;;;;0.10;0.10;;;;;;;11.33;44.77;99013.66;6303692;22;20007;-78
2022/02/05 12:33:54;;;;;;;0.40;0.40;;;;;;;11.40;45.09;99014.13;6303738;22;20010;-76
2022/02/05 12:36:30;;;;;;;0.00;0.00;;;;;;;11.40;45.04;99008.78;6276129;22;20341;-76
2022/02/05 12:38:58;;;;;;;0.00;0.00;;;;;;;11.45;45.12;99013.25;6303584;22;20466;-77
2022/02/05 12:41:25;;;;;;;0.00;0.00;;;;;;;11.46;44.61;99010.31;6303516;22;20377;-76
2022/02/05 12:43:59;;;;;;;0.00;0.00;;;;;;;11.52;44.96;99016.41;6276154;22;20006;-78
2022/02/05 12:46:31;;;;;;;0.00;0.00;;;;;;;11.58;44.96;99015.28;6303786;22;20345;-78
2022/02/05 12:49:05;;;;;;;0.00;0.00;;;;;;;11.65;44.66;99014.97;6275918;22;20018;-78
2022/02/05 12:51:39;;;;;;;0.00;0.00;;;;;;;11.71;44.83;99018.41;6303862;22;20003;-76
2022/02/05 12:54:12;;;;;;;0.00;0.00;;;;;;;11.75;44.37;99011.38;6303365;22;20280;-76
2022/02/05 12:56:42;;;;;;;0.30;0.30;;;;;;;11.76;44.75;98995.00;6304325;22;20003;-76
2022/02/05 12:59:14;;;;;;;0.00;0.00;;;;;;;11.82;43.92;99004.59;6303765;22;20048;-76
2022/02/05 13:02:11;;;;;;;0.00;0.00;;;;;;;11.86;43.57;99015.53;6276893;22;20003;-77
2022/02/05 13:04:39;;;;;;;0.10;0.10;;;;;;;11.90;43.45;99008.53;6280755;22;20074;-76
2022/02/05 13:07:16;;;;;;;0.00;0.00;;;;;;;11.95;43.29;99004.97;6306255;22;20007;-76
2022/02/05 13:10:06;;;;;;;0.05;0.05;;;;;;;11.96;42.04;99017.31;6306209;22;19999;-76
2022/02/05 13:12:40;;;;;;;0.38;0.38;;;;;;;11.97;43.11;99018.94;6291264;22;20604;-76
2022/02/05 13:15:21;;;;;;;0.00;0.00;;;;;;;12.01;43.17;99026.13;6306198;22;20090;-76
2022/02/05 13:25:50;;;;;;;0.40;0.40;;;;;;;12.16;41.64;99024.34;6306144;22;20064;-76
2022/02/05 13:36:10;;;;;;;0.05;0.05;;;;;;;12.32;41.57;99023.06;6305795;22;20086;-76
2022/02/05 13:38:52;;;;;;;0.00;0.00;;;;;;;12.32;41.87;99012.34;6278293;22;20067;-76
2022/02/05 13:41:30;;;;;;;0.00;0.00;;;;;;;12.39;41.61;99014.66;6278727;22;20003;-76
2022/02/05 13:43:57;;;;;;;0.00;0.00;;;;;;;12.44;40.65;99008.44;6306297;22;20357;-77
2022/02/05 13:46:23;;;;;;;0.00;0.00;;;;;;;12.48;40.89;99009.47;6306275;22;19999;-76
2022/02/05 13:48:48;;;;;;;0.00;0.00;;;;;;;12.46;39.91;99007.06;6305809;22;20090;-76
2022/02/05 13:51:16;;;;;;;0.00;0.00;;;;;;;12.48;39.80;99004.09;6305468;22;20035;-76
2022/02/05 13:53:55;;;;;;;0.00;0.00;;;;;;;12.53;39.42;99012.06;6306113;22;20424;-77
2022/02/05 13:56:20;;;;;;;0.00;0.00;;;;;;;12.57;39.26;99015.78;6305872;22;19999;-77
2022/02/05 13:58:46;;;;;;;0.00;0.00;;;;;;;12.54;39.22;99010.19;6305918;22;20053;-77
2022/02/05 14:01:34;;;;;;;0.38;0.38;;;;;;;12.56;39.43;99011.50;6305728;22;20060;-76
2022/02/05 14:04:19;;;;;;;;;;;;;;;12.67;39.51;99024.75;6306122;22;20000;-77
2022/02/05 14:06:58;;;;;;;0.00;0.00;;;;;;;12.68;39.73;99015.63;6306082;22;19909;-77
2022/02/05 14:09:30;;;;;;;0.00;0.00;;;;;;;12.70;39.79;99018.81;6305506;22;20448;-77
2022/02/05 14:11:59;;;;;;;0.00;0.00;;;;;;;12.70;39.35;99013.44;6305381;22;20007;-76
2022/02/05 14:14:33;;;;;;;0.00;0.00;;;;;;;12.71;38.77;99012.38;6305142;22;20014;-76
2022/02/05 14:16:59;;;;;;;0.00;0.00;;;;;;;12.70;39.42;99005.41;6305448;22;20348;-77
2022/02/05 14:19:27;;;;;;;0.00;0.00;;;;;;;12.70;38.99;99000.03;6305923;22;20010;-77
2022/02/05 14:21:54;;;;;;;0.28;0.28;;;;;;;12.70;38.98;99000.03;6305482;22;20003;-76
2022/02/05 14:24:39;;;;;;;0.03;0.03;;;;;;;12.73;38.94;99008.31;6305408;22;20484;-77
2022/02/05 14:27:16;;;;;;;1.08;0.88;;;;;;;12.72;39.08;99013.94;6304889;22;20466;-78
2022/02/05 14:42:51;;;;;;;0.00;0.00;;;;;;;12.75;39.38;99022.22;6305743;22;20078;-74
2022/02/05 14:45:17;;;;;;;0.10;0.10;;;;;;;12.74;39.30;99020.63;6304904;22;20007;-77
2022/02/05 14:47:42;;;;;;;0.00;0.00;;;;;;;12.76;38.80;99023.03;6278161;22;20014;-76
2022/02/05 14:50:08;;;;;;;0.00;0.00;;;;;;;12.75;38.77;99019.53;6278001;22;20011;-77
2022/02/05 14:52:34;;;;;;;0.00;0.00;;;;;;;12.75;39.00;99029.47;6278234;22;20018;-76
2022/02/05 14:54:59;;;;;;;0.00;0.00;;;;;;;12.71;39.35;99026.56;6305010;22;19999;-76
2022/02/05 14:57:25;;;;;;;0.00;0.00;;;;;;;12.75;38.99;99030.25;6304933;22;20038;-76
2022/02/05 14:59:50;;;;;;;0.00;0.00;;;;;;;12.76;38.98;99029.16;6305074;22;20056;-76
2022/02/05 15:02:16;;;;;;;0.03;0.03;;;;;;;12.67;39.11;99024.75;6304863;22;20428;-77
2022/02/05 15:04:41;;;;;;;0.00;0.00;;;;;;;12.64;38.92;99024.22;6278181;22;20356;-77
2022/02/05 15:07:08;;;;;;;0.00;0.00;;;;;;;12.60;38.86;99025.91;6304885;22;20007;-80
2022/02/05 15:09:33;;;;;;;0.00;0.00;;;;;;;12.55;38.83;99028.66;6303564;22;20014;-77
2022/02/05 15:11:59;;;;;;;0.00;0.00;;;;;;;12.54;39.16;99028.97;6277557;22;20014;-75
2022/02/05 15:14:24;;;;;;;0.00;0.00;;;;;;;12.51;39.06;99035.69;6305067;22;20003;-75
2022/02/05 15:16:50;;;;;;;0.00;0.00;;;;;;;12.47;39.76;99040.03;6305353;22;20010;-76
2022/02/05 15:19:15;;;;;;;0.00;0.00;;;;;;;12.43;39.83;99042.50;6304821;22;20395;-77
2022/02/05 15:21:41;;;;;;;0.00;0.00;;;;;;;12.40;39.74;99036.91;6305250;22;20339;-76
2022/02/05 15:24:08;;;;;;;0.00;0.00;;;;;;;12.34;39.83;99041.56;6277320;22;20010;-76
2022/02/05 15:26:35;;;;;;;0.00;0.00;;;;;;;12.31;40.64;99039.44;6305173;22;20007;-76
2022/02/05 15:29:10;;;;;;;0.50;0.50;;;;;;;12.22;40.04;99036.59;6277709;22;20026;-78
2022/02/05 15:31:38;;;;;;;0.10;0.10;;;;;;;12.18;39.71;99038.25;6277681;22;20011;-77
2022/02/05 15:34:04;;;;;;;0.00;0.00;;;;;;;12.11;40.28;99038.59;6277523;22;20360;-77
2022/02/05 15:37:18;;;;;;;0.10;0.10;;;;;;;12.03;40.46;99041.91;6305137;22;20009;-78